Strona główna
METAR-TAF:

METAR-TAF

Lotnisko :

Port lotniczy Biak-Frans Kaisiepo

Biak, Indonezja

Szerokość geograficzna: 01-11S, Długość geograficzna: 136-07E, wysokość: 11 m

Aktualna obserwacja pogody

Raport powstał 1 godzina i 4 minut temu, godzina 22:30 UTC
Wiatr 2 kt od zachodnio-północny zachód
Temperatura 27°C
Wilgotność 94%
Ciśnienie 1011 hPa
Widzialność 10 km lub więcej
Mało chmury na wysokości 1800 ft
Rozproszone chmury na wysokości 10000 ft

METAR: WABB 232230Z 29002KT 9999 FEW018 SCT100 27/26 Q1011 NOSIG

czas: 06:34 (23:34 UTC)

Prognoza

Raport powstał 7 godziny i 34 minut temu, godzina 16:00 UTC
Prognoza ważna od 23 godzina 18 UTC do 25 godzina 00 UTC
Wiatr kt od północ
Widzialność 10 km lub więcej
Rozproszone chmury na wysokości 1800 ft
Przejściowo
od 24 godzina 03 UTC do 24 godzina 07 UTC
Widzialność: 5000 m
Mało chmury na wysokości 1700 ft, Cumulonimbus.
Przerywane chmury na wysokości 1900 ft
deszcz

TAF: WABB 231600Z 2318/2500 00000KT 9999 SCT018 TEMPO 2403/2407 5000 RA FEW017CB BKN019

Obserwacja i prognoza pogody dla ponad 4000 lotnisk (raport METAR i TAF).

Dostępne stacje oznaczono żółtymi i czerwonymi punktami na mapie.

Najedź kursorem aby zobaczyć nazwę stacji.

Kliknij aby zobaczyć obserwacje i prognozy pogody.

Aby zmienić mapę: kliknij na zielony przycisk z czarnym krzyżykiem, aby powiększyć; na zielony przycisk z myślnikiem, aby pomniejszyć; na zielone strzałki, aby przejść do map sąsiednich.


METAR-TAF: